.
WxDataArchive / Data Records for 2013-01-06
2013-01-05 January 2013 2013-01-07

Data Records for Sunday, 06 January 2013

Time	Temp	Chill	HIndex	Humid	Dewpt	 Wind 	HiWind	WindDir	Rain 	Barom 
-----	----	-----	------	-----	-----	------	------	-------	-----	----- 
00:00	32.8	32.8	32.8	88	29.6	1	4	225	0.00	30.077 
00:05	32.9	32.9	32.9	87	29.5	1	4	248	0.00	30.077 
00:10	32.9	32.9	32.9	87	29.5	1	5	248	0.00	30.077 
00:15	33.1	33.1	33.1	87	29.7	1	4	248	0.00	30.070 
00:20	33.1	33.1	33.1	86	29.4	1	4	248	0.00	30.070 
00:25	33.2	33.2	33.2	86	29.5	2	5	248	0.00	30.070 
00:30	33.4	33.4	33.4	86	29.7	1	4	248	0.00	30.062 
00:35	33.4	33.4	33.4	85	29.4	1	7	248	0.00	30.062 
00:40	33.5	33.5	33.5	85	29.5	1	4	248	0.00	30.062 
00:45	33.5	33.5	33.5	85	29.5	1	6	248	0.00	30.052 
00:50	33.5	33.5	33.5	85	29.5	1	6	248	0.00	30.052 
00:55	33.7	33.7	33.7	84	29.4	2	7	248	0.00	30.052 
01:00	33.7	33.7	33.7	84	29.4	1	6	248	0.00	30.049 
01:05	33.7	33.7	33.7	84	29.4	1	4	248	0.00	30.049 
01:10	33.7	33.7	33.7	84	29.4	1	3	248	0.00	30.049 
01:15	33.7	33.7	33.7	84	29.4	1	3	248	0.00	30.037 
01:20	33.7	33.7	33.7	83	29.1	1	4	248	0.00	30.037 
01:25	33.8	33.8	33.8	83	29.2	1	4	248	0.00	30.037 
01:30	33.8	33.8	33.8	83	29.2	1	5	248	0.00	30.033 
01:35	33.8	33.8	33.8	83	29.2	1	4	248	0.00	30.033 
01:40	33.8	33.8	33.8	83	29.2	1	3	248	0.00	30.033 
01:45	33.8	33.8	33.8	82	28.9	2	6	248	0.00	30.034 
01:50	33.8	33.8	33.8	82	28.9	1	7	248	0.00	30.034 
01:55	34.0	34.0	34.0	82	29.1	1	5	248	0.00	30.034 
02:00	34.0	34.0	34.0	81	28.8	1	5	248	0.00	30.027 
02:05	34.0	34.0	34.0	81	28.8	1	4	248	0.00	30.027 
02:10	34.0	34.0	34.0	81	28.8	1	5	248	0.00	30.027 
02:15	34.0	34.0	34.0	81	28.8	1	4	248	0.00	30.027 
02:20	34.0	34.0	34.0	81	28.8	1	5	248	0.00	30.027 
02:25	34.0	34.0	34.0	81	28.8	2	7	248	0.00	30.027 
02:30	34.0	34.0	34.0	81	28.8	1	3	248	0.00	30.021 
02:35	34.0	34.0	34.0	81	28.8	1	5	248	0.00	30.021 
02:40	34.0	34.0	34.0	81	28.8	1	4	248	0.00	30.021 
02:45	34.0	34.0	34.0	81	28.8	1	5	248	0.00	30.020 
02:50	34.0	34.0	34.0	81	28.8	2	5	248	0.00	30.020 
02:55	34.1	34.1	34.1	81	28.9	2	5	248	0.00	30.020 
03:00	34.1	34.1	34.1	81	28.9	2	5	248	0.00	30.020 
03:05	34.1	34.1	34.1	81	28.9	1	7	248	0.00	30.020 
03:10	34.1	34.1	34.1	82	29.2	2	5	248	0.00	30.020 
03:15	34.1	34.1	34.1	82	29.2	2	4	248	0.00	30.017 
03:20	34.1	34.1	34.1	82	29.2	1	3	248	0.00	30.017 
03:25	34.0	34.0	34.0	82	29.1	1	3	248	0.00	30.017 
03:30	34.0	34.0	34.0	82	29.1	1	4	248	0.00	30.006 
03:35	34.0	34.0	34.0	82	29.1	2	5	248	0.00	30.006 
03:40	34.0	34.0	34.0	82	29.1	1	3	225	0.00	30.006 
03:45	33.8	33.8	33.8	82	28.9	1	4	225	0.00	30.004 
03:50	33.8	33.8	33.8	82	28.9	1	4	248	0.00	30.004 
03:55	33.8	33.8	33.8	82	28.9	1	4	248	0.00	30.004 
04:00	33.8	33.8	33.8	82	28.9	1	6	248	0.00	29.998 
04:05	33.8	33.8	33.8	82	28.9	1	5	225	0.00	29.998 
04:10	33.8	33.8	33.8	82	28.9	1	2	248	0.00	29.998 
04:15	33.8	33.8	33.8	82	28.9	1	5	248	0.00	29.990 
04:20	33.8	33.8	33.8	82	28.9	1	5	270	0.00	29.990 
04:25	34.0	34.0	34.0	81	28.8	1	6	248	0.00	29.990 
04:30	34.0	34.0	34.0	81	28.8	1	3	248	0.00	29.988 
04:35	34.0	34.0	34.0	81	28.8	1	3	248	0.00	29.988 
04:40	34.0	34.0	34.0	81	28.8	1	4	248	0.00	29.988 
04:45	34.0	34.0	34.0	81	28.8	1	5	248	0.00	29.981 
04:50	34.0	34.0	34.0	81	28.8	1	5	248	0.00	29.981 
04:55	34.1	34.1	34.1	81	28.9	1	5	248	0.00	29.981 
05:00	34.1	34.1	34.1	81	28.9	1	5	248	0.00	29.974 
05:05	34.1	34.1	34.1	81	28.9	1	4	248	0.00	29.974 
05:10	34.1	34.1	34.1	81	28.9	2	5	248	0.00	29.974 
05:15	34.1	34.1	34.1	81	28.9	1	4	248	0.00	29.975 
05:20	34.3	34.3	34.3	81	29.1	1	4	248	0.00	29.975 
05:25	34.3	34.3	34.3	81	29.1	1	4	248	0.00	29.975 
05:30	34.3	34.3	34.3	81	29.1	2	5	248	0.00	29.971 
05:35	34.3	34.3	34.3	81	29.1	1	3	270	0.00	29.971 
05:40	34.3	34.3	34.3	81	29.1	1	4	248	0.00	29.971 
05:45	34.3	34.3	34.3	81	29.1	1	4	248	0.00	29.971 
05:50	34.3	34.3	34.3	81	29.1	1	5	248	0.00	29.971 
05:55	34.4	34.4	34.4	81	29.2	2	5	248	0.00	29.971 
06:00	34.4	34.4	34.4	81	29.2	1	4	248	0.00	29.971 
06:05	34.4	34.4	34.4	82	29.5	1	7	248	0.00	29.971 
06:10	34.4	34.4	34.4	82	29.5	1	5	248	0.00	29.971 
06:15	34.4	34.4	34.4	82	29.5	2	5	248	0.00	29.968 
06:20	34.6	34.6	34.6	82	29.7	1	4	248	0.00	29.968 
06:25	34.6	34.6	34.6	82	29.7	0	5	248	0.00	29.968 
06:30	34.6	34.6	34.6	82	29.7	1	4	248	0.00	29.967 
06:35	34.6	34.6	34.6	82	29.7	1	3	248	0.00	29.967 
06:40	34.6	34.6	34.6	82	29.7	1	3	248	0.00	29.967 
06:45	34.6	34.6	34.6	82	29.7	1	4	248	0.00	29.965 
06:50	34.6	34.6	34.6	82	29.7	1	4	248	0.00	29.965 
06:55	34.6	34.6	34.6	82	29.7	1	3	248	0.00	29.965 
07:00	34.6	34.6	34.6	82	29.7	1	4	248	0.00	29.963 
07:05	34.7	34.7	34.7	82	29.8	1	4	248	0.00	29.963 
07:10	34.7	34.7	34.7	82	29.8	1	4	248	0.00	29.963 
07:15	34.7	34.7	34.7	82	29.8	1	4	248	0.00	29.964 
07:20	34.7	34.7	34.7	82	29.8	0	3	248	0.00	29.964 
07:25	34.7	34.7	34.7	82	29.8	1	4	248	0.00	29.964 
07:30	34.9	34.9	34.9	82	30.0	1	2	248	0.00	29.961 
07:35	34.9	34.9	34.9	82	30.0	1	6	248	0.00	29.961 
07:40	34.9	34.9	34.9	82	30.0	1	5	248	0.00	29.961 
07:45	35.0	35.0	35.0	82	30.1	2	5	248	0.00	29.963 
07:50	35.0	35.0	35.0	82	30.1	1	5	248	0.00	29.963 
07:55	35.0	35.0	35.0	81	29.8	1	5	248	0.00	29.963 
08:00	35.0	35.0	35.0	81	29.8	2	6	248	0.00	29.963 
08:05	35.2	35.2	35.2	81	30.0	2	5	248	0.00	29.963 
08:10	35.2	35.2	35.2	81	30.0	2	7	248	0.00	29.963 
08:15	35.2	35.2	35.2	81	30.0	2	6	248	0.00	29.963 
08:20	35.2	35.2	35.2	81	30.0	2	7	248	0.00	29.963 
08:25	35.3	35.3	35.3	81	30.1	2	6	248	0.00	29.963 
08:30	35.3	35.3	35.3	81	30.1	2	4	248	0.00	29.966 
08:35	35.3	35.3	35.3	81	30.1	2	5	225	0.00	29.966 
08:40	35.3	35.3	35.3	81	30.1	2	5	248	0.00	29.966 
08:45	35.3	35.3	35.3	81	30.1	2	7	225	0.00	29.971 
08:50	35.5	35.5	35.5	80	30.0	2	5	248	0.00	29.971 
08:55	35.5	35.5	35.5	80	30.0	2	7	248	0.00	29.971 
09:00	35.5	35.5	35.5	80	30.0	2	7	248	0.00	29.971 
09:05	35.5	35.5	35.5	80	30.0	2	7	248	0.00	29.971 
09:10	35.6	35.6	35.6	80	30.1	2	5	248	0.00	29.971 
09:15	35.6	35.6	35.6	80	30.1	2	5	248	0.00	29.972 
09:20	35.6	35.6	35.6	80	30.1	3	11	248	0.00	29.972 
09:25	35.8	35.8	35.8	80	30.2	2	4	248	0.00	29.972 
09:30	35.8	35.8	35.8	80	30.2	2	6	248	0.00	29.975 
09:35	35.8	35.8	35.8	80	30.2	2	5	248	0.00	29.975 
09:40	35.8	35.8	35.8	80	30.2	2	4	248	0.00	29.975 
09:45	35.8	35.8	35.8	80	30.2	2	6	248	0.00	29.978 
09:50	35.8	35.8	35.8	80	30.2	2	5	248	0.00	29.978 
09:55	35.6	35.6	35.6	80	30.1	2	6	248	0.00	29.978 
10:00	35.6	35.6	35.6	81	30.4	2	7	248	0.00	29.985 
10:05	35.6	35.6	35.6	81	30.4	2	5	248	0.00	29.985 
10:10	35.6	35.6	35.6	81	30.4	3	8	248	0.00	29.985 
10:15	35.6	35.6	35.6	81	30.4	2	7	248	0.00	29.988 
10:20	35.6	35.6	35.6	81	30.4	2	10	248	0.00	29.988 
10:25	35.6	35.6	35.6	81	30.4	3	7	248	0.00	29.988 
10:30	35.6	35.6	35.6	81	30.4	3	6	248	0.00	29.993 
10:35	35.6	35.6	35.6	81	30.4	2	6	248	0.00	29.993 
10:40	35.5	35.5	35.5	81	30.3	2	6	248	0.00	29.993 
10:45	35.5	35.5	35.5	82	30.6	2	6	248	0.00	29.997 
10:50	35.5	35.5	35.5	82	30.6	2	4	248	0.00	29.997 
10:55	35.3	35.3	35.3	82	30.4	1	4	248	0.00	29.997 
11:00	35.2	35.2	35.2	83	30.6	2	3	270	0.00	30.003 
11:05	35.2	35.2	35.2	83	30.6	2	4	248	0.00	30.003 
11:10	35.0	35.0	35.0	84	30.7	2	5	248	0.00	30.003 
11:15	34.9	34.9	34.9	84	30.6	2	5	248	0.00	30.003 
11:20	34.9	34.9	34.9	84	30.6	2	4	248	0.00	30.003 
11:25	34.9	34.9	34.9	84	30.6	2	7	248	0.00	30.003 
11:30	34.7	34.7	34.7	84	30.4	3	7	270	0.01	30.002 
11:35	34.7	34.7	34.7	83	30.1	3	6	248	0.00	30.002 
11:40	34.6	34.6	34.6	82	29.7	2	7	248	0.00	30.002 
11:45	34.4	30.8	34.4	81	29.2	4	9	270	0.00	30.001 
11:50	34.3	34.3	34.3	80	28.8	3	6	270	0.00	30.001 
11:55	34.3	34.3	34.3	80	28.8	3	5	248	0.00	30.001 
12:00	34.3	34.3	34.3	79	28.5	2	5	248	0.00	30.002 
12:05	34.3	34.3	34.3	79	28.5	2	4	270	0.00	30.002 
12:10	34.0	34.0	34.0	77	27.6	3	6	248	0.00	30.002 
12:15	33.7	29.1	33.7	75	26.6	5	14	248	0.00	30.003 
12:20	33.5	33.5	33.5	75	26.4	3	5	270	0.00	30.003 
12:25	33.7	33.7	33.7	76	27.0	2	5	248	0.00	30.003 
12:30	33.4	33.4	33.4	76	26.7	2	5	248	0.00	30.007 
12:35	33.1	33.1	33.1	75	26.1	2	5	248	0.00	30.007 
12:40	32.7	32.7	32.7	75	25.7	3	9	270	0.00	30.007 
12:45	31.6	31.6	31.6	75	24.6	3	5	248	0.00	30.014 
12:50	31.0	31.0	31.0	75	24.0	2	5	270	0.00	30.014 
12:55	30.6	26.5	30.6	76	24.0	4	6	248	0.00	30.014 
13:00	30.4	30.4	30.4	76	23.8	3	6	248	0.00	30.023 
13:05	30.3	30.3	30.3	77	24.0	2	5	270	0.00	30.023 
13:10	30.1	30.1	30.1	77	23.8	2	7	270	0.00	30.023 
13:15	30.0	30.0	30.0	77	23.7	3	5	292	0.00	30.025 
13:20	29.8	29.8	29.8	77	23.5	3	11	270	0.00	30.025 
13:25	29.4	29.4	29.4	77	23.1	3	7	315	0.00	30.025 
13:30	29.0	29.0	29.0	77	22.7	3	6	270	0.00	30.039 
13:35	28.8	28.8	28.8	77	22.5	2	5	270	0.00	30.039 
13:40	28.8	28.8	28.8	77	22.5	3	7	248	0.00	30.039 
13:45	28.8	28.8	28.8	76	22.2	3	6	270	0.00	30.036 
13:50	28.8	28.8	28.8	76	22.2	2	5	270	0.00	30.036 
13:55	29.0	29.0	29.0	76	22.4	2	5	248	0.00	30.036 
14:00	29.0	29.0	29.0	76	22.4	1	3	292	0.00	30.043 
14:05	29.0	29.0	29.0	75	22.1	2	5	248	0.00	30.043 
14:10	29.1	29.1	29.1	74	21.9	2	5	270	0.00	30.043 
14:15	29.3	29.3	29.3	74	22.1	2	4	248	0.00	30.048 
14:20	29.1	29.1	29.1	73	21.5	2	5	248	0.00	30.048 
14:25	29.0	29.0	29.0	74	21.8	2	4	248	0.00	30.048 
14:30	28.8	28.8	28.8	74	21.6	2	4	248	0.00	30.057 
14:35	28.8	28.8	28.8	74	21.6	2	5	248	0.00	30.057 
14:40	28.8	28.8	28.8	75	21.9	2	4	248	0.00	30.057 
14:45	28.8	28.8	28.8	74	21.6	2	5	248	0.00	30.060 
14:50	28.7	28.7	28.7	75	21.8	2	6	270	0.00	30.060 
14:55	28.7	28.7	28.7	75	21.8	1	4	248	0.00	30.060 
15:00	28.7	28.7	28.7	75	21.8	2	4	248	0.00	30.074 
15:05	28.5	28.5	28.5	75	21.6	2	4	248	0.00	30.074 
15:10	28.4	28.4	28.4	75	21.5	1	3	248	0.00	30.074 
15:15	28.4	28.4	28.4	76	21.8	2	4	248	0.00	30.085 
15:20	28.5	28.5	28.5	76	21.9	1	4	248	0.00	30.085 
15:25	28.4	28.4	28.4	76	21.8	1	3	248	0.00	30.085 
15:30	28.2	28.2	28.2	76	21.6	1	4	248	0.00	30.099 
15:35	28.1	28.1	28.1	76	21.5	2	5	248	0.00	30.099 
15:40	28.1	28.1	28.1	77	21.8	2	4	248	0.00	30.099 
15:45	27.9	27.9	27.9	77	21.6	2	4	248	0.00	30.108 
15:50	27.8	27.8	27.8	77	21.5	2	5	248	0.00	30.108 
15:55	27.8	27.8	27.8	77	21.5	2	5	248	0.00	30.108 
16:00	27.6	27.6	27.6	78	21.7	2	6	248	0.00	30.120 
16:05	27.5	27.5	27.5	78	21.6	2	6	248	0.00	30.120 
16:10	27.3	27.3	27.3	78	21.4	2	4	248	0.00	30.120 
16:15	27.3	27.3	27.3	78	21.4	2	5	248	0.00	30.133 
16:20	27.2	27.2	27.2	78	21.3	2	4	248	0.00	30.133 
16:25	27.2	27.2	27.2	79	21.6	2	4	248	0.00	30.133 
16:30	27.2	27.2	27.2	79	21.6	2	6	248	0.00	30.140 
16:35	27.0	27.0	27.0	78	21.1	2	5	248	0.00	30.140 
16:40	26.9	26.9	26.9	79	21.3	2	7	248	0.00	30.140 
16:45	26.9	26.9	26.9	79	21.3	1	3	248	0.00	30.151 
16:50	26.7	26.7	26.7	79	21.1	2	6	248	0.00	30.151 
16:55	26.7	26.7	26.7	79	21.1	2	6	248	0.00	30.151 
17:00	26.6	26.6	26.6	79	21.0	3	6	248	0.00	30.147 
17:05	26.6	26.6	26.6	80	21.3	2	4	248	0.00	30.147 
17:10	26.4	26.4	26.4	80	21.1	2	5	248	0.00	30.147 
17:15	26.3	26.3	26.3	80	21.0	2	5	248	0.00	30.158 
17:20	26.3	26.3	26.3	80	21.0	2	4	270	0.00	30.158 
17:25	26.1	26.1	26.1	80	20.8	2	5	248	0.00	30.158 
17:30	26.1	26.1	26.1	80	20.8	2	7	248	0.00	30.165 
17:35	26.1	26.1	26.1	80	20.8	3	7	248	0.00	30.165 
17:40	26.1	26.1	26.1	80	20.8	2	5	248	0.00	30.165 
17:45	26.1	26.1	26.1	80	20.8	2	5	248	0.00	30.170 
17:50	26.3	26.3	26.3	80	21.0	2	6	248	0.00	30.170 
17:55	26.3	26.3	26.3	80	21.0	2	4	248	0.00	30.170 
18:00	26.3	26.3	26.3	81	21.3	1	4	248	0.00	30.180 
18:05	26.4	26.4	26.4	81	21.4	2	6	248	0.00	30.180 
18:10	26.4	26.4	26.4	81	21.4	1	3	248	0.00	30.180 
18:15	26.4	26.4	26.4	81	21.4	1	4	248	0.00	30.190 
18:20	26.6	26.6	26.6	81	21.6	1	3	248	0.00	30.190 
18:25	26.6	26.6	26.6	81	21.6	2	4	248	0.00	30.190 
18:30	26.6	26.6	26.6	81	21.6	2	5	248	0.00	30.198 
18:35	26.7	26.7	26.7	81	21.7	0	3	248	0.00	30.198 
18:40	26.7	26.7	26.7	82	22.0	1	4	248	0.00	30.198 
18:45	26.7	26.7	26.7	82	22.0	2	4	248	0.00	30.211 
18:50	26.7	26.7	26.7	82	22.0	2	5	248	0.00	30.211 
18:55	26.7	26.7	26.7	83	22.2	2	5	248	0.00	30.211 
19:00	26.9	26.9	26.9	83	22.4	1	4	248	0.00	30.218 
19:05	27.0	27.0	27.0	83	22.5	1	4	248	0.00	30.218 
19:10	27.0	27.0	27.0	83	22.5	1	4	248	0.00	30.218 
19:15	27.2	27.2	27.2	83	22.7	2	5	248	0.00	30.229 
19:20	27.2	27.2	27.2	82	22.4	1	4	225	0.00	30.229 
19:25	27.3	27.3	27.3	82	22.5	1	4	248	0.00	30.229 
19:30	27.5	27.5	27.5	82	22.7	1	3	248	0.00	30.235 
19:35	27.5	27.5	27.5	82	22.7	2	5	248	0.00	30.235 
19:40	27.6	27.6	27.6	82	22.8	2	6	248	0.00	30.235 
19:45	27.8	27.8	27.8	82	23.0	2	5	248	0.00	30.243 
19:50	27.8	27.8	27.8	81	22.7	2	4	248	0.00	30.243 
19:55	27.8	27.8	27.8	81	22.7	2	4	248	0.00	30.243 
20:00	27.9	27.9	27.9	81	22.8	1	3	248	0.00	30.243 
20:05	27.9	27.9	27.9	81	22.8	2	5	248	0.00	30.243 
20:10	28.1	28.1	28.1	81	23.0	1	5	248	0.00	30.243 
20:15	28.1	28.1	28.1	81	23.0	1	3	248	0.00	30.245 
20:20	28.1	28.1	28.1	82	23.3	1	4	248	0.00	30.245 
20:25	28.2	28.2	28.2	82	23.4	1	3	225	0.00	30.245 
20:30	28.2	28.2	28.2	82	23.4	1	5	248	0.00	30.258 
20:35	28.4	28.4	28.4	82	23.6	1	3	248	0.00	30.258 
20:40	28.4	28.4	28.4	82	23.6	1	4	248	0.00	30.258 
20:45	28.5	28.5	28.5	82	23.7	1	4	248	0.00	30.265 
20:50	28.7	28.7	28.7	82	23.9	1	3	248	0.00	30.265 
20:55	28.7	28.7	28.7	82	23.9	1	4	248	0.00	30.265 
21:00	28.7	28.7	28.7	82	23.9	1	4	248	0.00	30.273 
21:05	28.8	28.8	28.8	83	24.3	2	5	248	0.00	30.273 
21:10	28.8	28.8	28.8	83	24.3	1	3	248	0.00	30.273 
21:15	29.0	29.0	29.0	83	24.5	1	4	248	0.00	30.272 
21:20	29.0	29.0	29.0	83	24.5	1	3	248	0.00	30.272 
21:25	29.0	29.0	29.0	83	24.5	1	3	248	0.00	30.272 
21:30	29.0	29.0	29.0	83	24.5	1	2	248	0.00	30.275 
21:35	29.1	29.1	29.1	83	24.6	0	2	248	0.00	30.275 
21:40	29.1	29.1	29.1	83	24.6	1	2	248	0.00	30.275 
21:45	29.1	29.1	29.1	83	24.6	1	3	248	0.00	30.280 
21:50	29.3	29.3	29.3	83	24.8	1	2	248	0.00	30.280 
21:55	29.3	29.3	29.3	83	24.8	1	2	248	0.00	30.280 
22:00	29.3	29.3	29.3	83	24.8	0	2	248	0.00	30.290 
22:05	29.3	29.3	29.3	83	24.8	0	2	248	0.00	30.290 
22:10	29.4	29.4	29.4	83	24.9	1	3	248	0.00	30.290 
22:15	29.4	29.4	29.4	82	24.6	1	3	248	0.00	30.294 
22:20	29.4	29.4	29.4	82	24.6	1	2	248	0.00	30.294 
22:25	29.5	29.5	29.5	82	24.7	1	3	248	0.00	30.294 
22:30	29.5	29.5	29.5	82	24.7	1	3	248	0.00	30.299 
22:35	29.7	29.7	29.7	82	24.9	0	2	248	0.00	30.299 
22:40	29.7	29.7	29.7	82	24.9	0	2	248	0.00	30.299 
22:45	29.8	29.8	29.8	82	25.0	1	2	248	0.00	30.307 
22:50	29.8	29.8	29.8	81	24.7	0	3	248	0.00	30.307 
22:55	30.0	30.0	30.0	81	24.9	0	3	248	0.00	30.307 
23:00	30.0	30.0	30.0	81	24.9	0	2	248	0.00	30.312 
23:05	30.0	30.0	30.0	81	24.9	1	3	248	0.00	30.312 
23:10	30.0	30.0	30.0	81	24.9	0	2	248	0.00	30.312 
23:15	30.1	30.1	30.1	81	25.0	0	1	248	0.00	30.322 
23:20	30.1	30.1	30.1	81	25.0	0	1	248	0.00	30.322 
23:25	30.1	30.1	30.1	81	25.0	0	3	248	0.00	30.322 
23:30	30.1	30.1	30.1	81	25.0	0	1	248	0.00	30.323 
23:35	30.3	30.3	30.3	81	25.2	0	1	248	0.00	30.323 
23:40	30.3	30.3	30.3	81	25.2	0	2	248	0.00	30.323 
23:45	30.3	30.3	30.3	81	25.2	0	1	248	0.00	30.324 
23:50	30.3	30.3	30.3	81	25.2	0	2	248	0.00	30.324 
23:55	30.3	30.3	30.3	81	25.2	0	2	248	0.00	30.324 

CoCoRaHS
IN-AL-39
A2 Web Hosting
Creative Commons License
GoDaddy
search engine by freefind advanced

loaded 2018-11-20 09:01:40 • last modified 2010-11-18 10:43:29
Privacy PolicyDisclaimer
• wx.awcolley.com is powered by PmWiki v.2002016 •
• all content (unless otherwise noted) © 2018 A W Colley